Hlavní strana
METAR-TAF:

METAR-TAF

Letiště :

Rosario, Argentina

zeměpisná šířka: 32-55S, zeměpisná délka: 060-47W, výška: 25 m

Aktuální stav počasí

Zpráva byla vytvořena před 16 minutami, v 22:00 UTC
Severovýchodní vítr 5 kt
Teplota 21°C
Vlhkost vzduchu 64%
Tlak 1009 hPa
Viditelnost 10 km a více
Žádná oblačnost pod 1500 m, nevyskytují se cumulonimby.

METAR: SAAR 042200Z 05005KT CAVOK 21/14 Q1009

Čas: 19:16 (22:16 UTC)

Předpověď počasí

Zpráva byla vytvořena před 5 hodinami a 16 minutami, v 17:00 UTC
Předpověď platná od 04 v 18 UTC do 05 v 18 UTC
Severoseverozápadní vítr 10 kt
Viditelnost 10 km a více
Žádná oblačnost pod 1500 m, nevyskytují se cumulonimby.
Změna
od 04 v 19 UTC do 04 v 21 UTC
Severoseverovýchodní vítr 5 kt
Změna
od 05 v 13 UTC do 05 v 15 UTC
Severní vítr 10 kt

TAF: SAAR 041700Z 0418/0518 34010KT CAVOK TX27/0419Z TN12/0510Z BECMG 0419/0421 02005KT BECMG 0513/0515 36010KT

Stav a předpovědi počasí z více než 4 000 letišť (zprávy METAR a TAF).

Červené a žluté tečky na mapě představují dostupné meteorologické stanice.

Když kurzor umístíte na tečku, zobrazí se název stanice.

Pak kliknutím zobrazíte stav a předpověď počasí.

Chcete-li změnit mapu, kliknutím na zelené tlačítko se znaménkem +mapu přiblížíte, kliknutím na zelené tlačítko se znaménkem – mapu oddálíte a kliknutím na zelené šipky přejdete na sousední mapy.


METAR-TAF: